createdAt,value
2017-08-14T00:02:03.090Z,18.00
2017-08-14T00:04:30.558Z,17.90
2017-08-14T00:06:58.000Z,17.90
2017-08-14T00:09:25.486Z,17.80
2017-08-14T00:11:52.933Z,17.80
2017-08-14T00:14:20.389Z,17.70
2017-08-14T00:16:47.862Z,17.70
2017-08-14T00:19:15.428Z,17.60
2017-08-14T00:21:42.877Z,17.60
2017-08-14T00:24:10.350Z,17.50
2017-08-14T00:26:37.801Z,17.50
2017-08-14T00:29:05.285Z,17.40
2017-08-14T00:31:32.746Z,17.40
2017-08-14T00:34:00.200Z,17.30
2017-08-14T00:36:27.673Z,17.30
2017-08-14T00:38:55.197Z,17.30
2017-08-14T00:41:22.640Z,17.20
2017-08-14T00:43:50.097Z,17.20
2017-08-14T00:46:17.588Z,17.10
2017-08-14T00:48:45.117Z,17.10
2017-08-14T00:51:12.573Z,17.10
2017-08-14T00:53:40.045Z,17.00
2017-08-14T00:56:07.501Z,17.00
2017-08-14T00:58:34.959Z,17.00
2017-08-14T01:01:02.471Z,17.00
2017-08-14T01:03:29.921Z,16.90
2017-08-14T01:05:57.378Z,16.90
2017-08-14T01:08:25.844Z,16.80
2017-08-14T01:10:53.293Z,16.80
2017-08-14T01:13:20.737Z,16.80
2017-08-14T01:15:48.213Z,16.80
2017-08-14T01:18:15.781Z,16.70
2017-08-14T01:20:43.238Z,16.70
2017-08-14T01:23:10.693Z,16.60
2017-08-14T01:25:38.179Z,16.60
2017-08-14T01:28:05.629Z,16.50
2017-08-14T01:30:33.528Z,16.50
2017-08-14T01:33:01.025Z,16.50
2017-08-14T01:35:28.482Z,16.50
2017-08-14T01:37:55.939Z,16.50
2017-08-14T01:40:23.439Z,16.50
2017-08-14T01:42:50.895Z,16.40
2017-08-14T01:45:18.354Z,16.40
2017-08-14T01:47:45.834Z,16.40
2017-08-14T01:50:13.314Z,16.30
2017-08-14T01:52:40.795Z,16.30
2017-08-14T01:55:08.274Z,16.30
2017-08-14T01:57:35.729Z,16.20
2017-08-14T02:00:03.185Z,16.20
2017-08-14T02:02:30.674Z,16.20
2017-08-14T02:04:58.133Z,16.20
2017-08-14T02:07:25.586Z,16.20
2017-08-14T02:09:53.060Z,16.20
2017-08-14T02:12:20.514Z,16.20
2017-08-14T02:14:47.992Z,16.20
2017-08-14T02:17:15.489Z,16.20
2017-08-14T02:19:43.711Z,16.10
2017-08-14T02:22:11.166Z,16.10
2017-08-14T02:24:38.641Z,16.10
2017-08-14T02:27:06.100Z,16.10
2017-08-14T02:29:33.570Z,16.00
2017-08-14T02:32:01.034Z,16.00
2017-08-14T02:34:28.577Z,15.90
2017-08-14T02:36:56.072Z,15.90
2017-08-14T02:39:23.529Z,15.90
2017-08-14T02:41:51.034Z,15.90
2017-08-14T02:44:18.485Z,15.90
2017-08-14T02:46:45.937Z,15.90
2017-08-14T02:49:13.419Z,15.80
2017-08-14T02:51:40.872Z,15.80
2017-08-14T02:54:08.366Z,15.80
2017-08-14T02:56:35.822Z,15.80
2017-08-14T02:59:03.281Z,15.80
2017-08-14T03:01:30.798Z,15.80
2017-08-14T03:03:58.451Z,15.80
2017-08-14T03:06:26.127Z,15.70
2017-08-14T03:08:53.876Z,15.70
2017-08-14T03:11:21.479Z,15.70
2017-08-14T03:13:49.065Z,15.60
2017-08-14T03:16:16.612Z,15.60
2017-08-14T03:18:44.195Z,15.60
2017-08-14T03:21:12.435Z,15.50
2017-08-14T03:23:39.914Z,15.50
2017-08-14T03:26:07.397Z,15.50
2017-08-14T03:28:35.618Z,15.50
2017-08-14T03:31:03.482Z,15.50
2017-08-14T03:33:30.941Z,15.50
2017-08-14T03:35:58.397Z,15.40
2017-08-14T03:38:25.877Z,15.40
2017-08-14T03:40:53.354Z,15.30
2017-08-14T03:43:20.859Z,15.30
2017-08-14T03:45:48.334Z,15.30
2017-08-14T03:48:15.793Z,15.20
2017-08-14T03:50:43.318Z,15.20
2017-08-14T03:53:10.779Z,15.20
2017-08-14T03:55:38.250Z,15.20
2017-08-14T03:58:05.737Z,15.20
2017-08-14T04:00:33.220Z,15.20
2017-08-14T04:03:00.670Z,15.10
2017-08-14T04:05:28.161Z,15.10
2017-08-14T04:07:55.618Z,15.10
2017-08-14T04:10:23.082Z,15.10
2017-08-14T04:12:50.568Z,15.00
2017-08-14T04:15:18.022Z,15.00
2017-08-14T04:17:45.478Z,15.00
2017-08-14T04:20:12.954Z,15.00
2017-08-14T04:22:40.406Z,15.00
2017-08-14T04:25:07.908Z,14.90
2017-08-14T04:27:35.358Z,14.90
2017-08-14T04:30:02.825Z,14.90
2017-08-14T04:32:30.313Z,14.90
2017-08-14T04:34:57.769Z,14.90
2017-08-14T04:37:25.254Z,14.90
2017-08-14T04:39:52.739Z,14.90
2017-08-14T04:42:20.209Z,14.90
2017-08-14T04:44:47.660Z,14.90
2017-08-14T04:47:15.138Z,14.90
2017-08-14T04:49:43.367Z,15.00
2017-08-14T04:52:10.866Z,14.90
2017-08-14T04:54:39.091Z,15.00
2017-08-14T04:57:06.542Z,15.00
2017-08-14T04:59:34.017Z,15.00
2017-08-14T05:02:01.473Z,15.00
2017-08-14T05:04:28.954Z,15.00
2017-08-14T05:06:56.405Z,15.10
2017-08-14T05:09:23.889Z,15.10
2017-08-14T05:11:52.133Z,15.20
2017-08-14T05:14:19.589Z,15.10
2017-08-14T05:16:47.078Z,15.20
2017-08-14T05:19:15.298Z,15.20
2017-08-14T05:21:42.749Z,15.20
2017-08-14T05:24:10.229Z,15.30
2017-08-14T05:26:37.682Z,15.30
2017-08-14T05:29:05.189Z,15.30
2017-08-14T05:31:33.414Z,15.40
2017-08-14T05:34:00.865Z,15.40
2017-08-14T05:36:28.333Z,15.40
2017-08-14T05:38:55.785Z,15.50
2017-08-14T05:41:23.260Z,15.50
2017-08-14T05:43:50.714Z,15.50
2017-08-14T05:46:18.209Z,15.60
2017-08-14T05:48:46.433Z,15.60
2017-08-14T05:51:13.897Z,15.60
2017-08-14T05:53:41.377Z,15.70
2017-08-14T05:56:08.885Z,15.70
2017-08-14T05:58:36.418Z,15.70
2017-08-14T06:01:03.878Z,15.80
2017-08-14T06:03:31.381Z,15.90
2017-08-14T06:05:58.848Z,15.90
2017-08-14T06:08:26.302Z,16.00
2017-08-14T06:10:53.797Z,16.10
2017-08-14T06:13:21.261Z,16.10
2017-08-14T06:15:48.725Z,16.20
2017-08-14T06:18:16.220Z,16.30
2017-08-14T06:20:43.682Z,16.30
2017-08-14T06:23:11.146Z,16.40
2017-08-14T06:25:38.634Z,16.40
2017-08-14T06:28:06.134Z,16.50
2017-08-14T06:30:33.595Z,16.60
2017-08-14T06:33:01.045Z,16.60
2017-08-14T06:35:28.546Z,16.70
2017-08-14T06:37:56.026Z,16.80
2017-08-14T06:40:23.513Z,16.80
2017-08-14T06:42:50.969Z,16.90
2017-08-14T06:45:19.327Z,17.00
2017-08-14T06:47:46.781Z,17.00
2017-08-14T06:50:14.245Z,17.10
2017-08-14T06:52:41.742Z,17.10
2017-08-14T06:55:09.205Z,17.30
2017-08-14T06:57:36.681Z,17.30
2017-08-14T07:00:04.138Z,17.40
2017-08-14T07:02:31.630Z,17.40
2017-08-14T07:04:59.089Z,17.50
2017-08-14T07:07:26.550Z,17.50
2017-08-14T07:09:54.070Z,17.70
2017-08-14T07:12:21.537Z,17.70
2017-08-14T07:14:48.997Z,17.80
2017-08-14T07:17:16.481Z,17.90
2017-08-14T07:19:43.950Z,18.00
2017-08-14T07:22:11.409Z,18.00
2017-08-14T07:24:38.909Z,18.10
2017-08-14T07:27:06.369Z,18.20
2017-08-14T07:29:33.833Z,18.20
2017-08-14T07:32:01.315Z,18.30
2017-08-14T07:34:28.773Z,18.40
2017-08-14T07:36:56.266Z,18.40
2017-08-14T07:39:23.770Z,18.50
2017-08-14T07:41:51.273Z,18.50
2017-08-14T07:44:18.734Z,18.60
2017-08-14T07:46:46.194Z,18.70
2017-08-14T07:49:13.785Z,18.70
2017-08-14T07:51:41.247Z,18.80
2017-08-14T07:54:08.706Z,18.80
2017-08-14T07:56:36.195Z,18.90
2017-08-14T07:59:03.657Z,18.90
2017-08-14T08:01:31.145Z,19.00
2017-08-14T08:03:58.623Z,19.10
2017-08-14T08:06:26.114Z,19.10
2017-08-14T08:08:53.570Z,19.20
2017-08-14T08:11:21.026Z,19.20
2017-08-14T08:13:48.502Z,19.30
2017-08-14T08:16:15.977Z,19.30
2017-08-14T08:18:43.468Z,19.40
2017-08-14T08:21:10.939Z,19.50
2017-08-14T08:23:38.436Z,19.50
2017-08-14T08:26:05.881Z,19.60
2017-08-14T08:28:33.346Z,19.60
2017-08-14T08:31:00.850Z,19.70
2017-08-14T08:33:28.308Z,19.80
2017-08-14T08:35:55.985Z,19.90
2017-08-14T08:38:24.246Z,20.00
2017-08-14T08:40:51.742Z,20.00
2017-08-14T08:43:19.206Z,20.10
2017-08-14T08:45:46.706Z,20.10
2017-08-14T08:48:14.165Z,20.20
2017-08-14T08:50:41.629Z,20.20
2017-08-14T08:53:09.127Z,20.30
2017-08-14T08:55:36.614Z,20.40
2017-08-14T08:58:04.106Z,20.40
2017-08-14T09:00:31.569Z,20.50
2017-08-14T09:02:59.026Z,20.60
2017-08-14T09:05:26.505Z,20.70
2017-08-14T09:07:54.759Z,20.80
2017-08-14T09:10:22.325Z,20.80
2017-08-14T09:12:49.811Z,20.90
2017-08-14T09:15:17.297Z,21.00
2017-08-14T09:17:44.778Z,21.10
2017-08-14T09:20:12.270Z,21.20
2017-08-14T09:22:40.502Z,21.30
2017-08-14T09:25:07.983Z,21.30
2017-08-14T09:27:35.482Z,21.40
2017-08-14T09:30:02.954Z,21.40
2017-08-14T09:32:30.406Z,21.50
2017-08-14T09:34:57.882Z,21.60
2017-08-14T09:37:25.334Z,21.70
2017-08-14T09:39:52.907Z,21.70
2017-08-14T09:42:20.378Z,21.80
2017-08-14T09:44:47.844Z,21.90
2017-08-14T09:47:15.350Z,21.90
2017-08-14T09:49:43.613Z,22.00
2017-08-14T09:52:11.862Z,22.10
2017-08-14T09:54:39.310Z,22.10
2017-08-14T09:57:06.792Z,22.20
2017-08-14T09:59:34.244Z,22.20
2017-08-14T10:02:01.702Z,22.30
2017-08-14T10:04:29.177Z,22.30
2017-08-14T10:06:56.642Z,22.40
2017-08-14T10:09:24.872Z,22.70
2017-08-14T10:11:52.350Z,22.60
2017-08-14T10:14:19.827Z,22.80
2017-08-14T10:16:48.075Z,22.80
2017-08-14T10:19:15.562Z,22.80
2017-08-14T10:21:43.846Z,22.90
2017-08-14T10:24:12.198Z,23.10
2017-08-14T10:26:39.689Z,23.10
2017-08-14T10:29:07.153Z,23.20
2017-08-14T10:31:34.626Z,23.20
2017-08-14T10:34:02.086Z,23.40
2017-08-14T10:36:29.573Z,23.60
2017-08-14T10:38:57.022Z,23.80
2017-08-14T10:41:24.477Z,23.80
2017-08-14T10:43:51.954Z,23.90
2017-08-14T10:46:19.405Z,23.90
2017-08-14T10:48:46.912Z,23.90
2017-08-14T10:51:15.166Z,23.90
2017-08-14T10:53:42.633Z,23.90
2017-08-14T10:56:10.895Z,24.00
2017-08-14T10:58:38.386Z,23.90
2017-08-14T11:01:05.862Z,24.00
2017-08-14T11:03:33.338Z,24.00
2017-08-14T11:06:00.834Z,24.10
2017-08-14T11:08:28.289Z,24.10
2017-08-14T11:10:55.742Z,24.30
2017-08-14T11:13:23.218Z,24.40
2017-08-14T11:15:51.465Z,24.50
2017-08-14T11:18:18.918Z,24.40
2017-08-14T11:20:46.414Z,24.50
2017-08-14T11:23:14.643Z,25.00
2017-08-14T11:25:42.089Z,25.00
2017-08-14T11:28:09.573Z,25.40
2017-08-14T11:30:37.022Z,25.70
2017-08-14T11:33:04.506Z,25.80
2017-08-14T11:35:31.986Z,25.80
2017-08-14T11:38:00.212Z,25.70
2017-08-14T11:40:27.690Z,25.70
2017-08-14T11:42:55.145Z,25.60
2017-08-14T11:45:22.602Z,25.60
2017-08-14T11:47:50.125Z,25.60
2017-08-14T11:50:17.584Z,25.60
2017-08-14T11:52:45.117Z,25.60
2017-08-14T11:55:12.561Z,25.70
2017-08-14T11:57:40.010Z,25.70
2017-08-14T12:00:07.507Z,25.70
2017-08-14T12:02:34.957Z,25.70
2017-08-14T12:05:02.443Z,25.70
2017-08-14T12:07:29.917Z,25.70
2017-08-14T12:09:57.373Z,25.70
2017-08-14T12:12:24.821Z,25.70
2017-08-14T12:14:52.293Z,25.80
2017-08-14T12:17:19.746Z,25.90
2017-08-14T12:19:47.242Z,26.00
2017-08-14T12:22:15.477Z,26.30
2017-08-14T12:24:42.973Z,26.20
2017-08-14T12:27:10.457Z,26.40
2017-08-14T12:29:37.975Z,26.50
2017-08-14T12:32:05.446Z,26.60
2017-08-14T12:34:32.900Z,26.70
2017-08-14T12:37:00.399Z,26.80
2017-08-14T12:39:27.878Z,26.80
2017-08-14T12:41:55.363Z,26.90
2017-08-14T12:44:22.817Z,27.00
2017-08-14T12:46:50.280Z,27.10
2017-08-14T12:49:17.753Z,27.30
2017-08-14T12:51:45.193Z,27.30
2017-08-14T12:54:12.679Z,27.40
2017-08-14T12:56:40.910Z,27.70
2017-08-14T12:59:08.401Z,27.60
2017-08-14T13:01:35.871Z,27.80
2017-08-14T13:04:04.091Z,28.00
2017-08-14T13:06:31.565Z,28.00
2017-08-14T13:08:59.062Z,28.20
2017-08-14T13:11:27.306Z,28.40
2017-08-14T13:13:54.755Z,28.40
2017-08-14T13:16:22.237Z,28.50
2017-08-14T13:18:49.695Z,28.40
2017-08-14T13:21:17.155Z,28.50
2017-08-14T13:23:44.650Z,28.60
2017-08-14T13:26:12.101Z,28.70
2017-08-14T13:28:39.569Z,29.00
2017-08-14T13:31:07.046Z,29.20
2017-08-14T13:33:34.506Z,29.50
2017-08-14T13:36:01.997Z,29.70
2017-08-14T13:38:29.457Z,30.00
2017-08-14T13:40:56.907Z,29.90
2017-08-14T13:43:24.408Z,29.90
2017-08-14T13:45:51.869Z,30.10
2017-08-14T13:48:19.323Z,30.80
2017-08-14T13:50:46.816Z,31.80
2017-08-14T13:53:14.281Z,32.70
2017-08-14T13:55:41.730Z,33.40
2017-08-14T13:58:09.208Z,33.60
2017-08-14T14:00:36.682Z,33.20
2017-08-14T14:03:04.342Z,33.20
2017-08-14T14:05:31.826Z,33.40
2017-08-14T14:08:00.059Z,35.00
2017-08-14T14:10:27.547Z,35.00
2017-08-14T14:12:54.990Z,36.50
2017-08-14T14:15:22.465Z,38.90
2017-08-14T14:17:49.954Z,41.10
2017-08-14T14:20:17.461Z,40.80
2017-08-14T14:22:44.937Z,40.20
2017-08-14T14:25:12.394Z,38.70
2017-08-14T14:27:39.907Z,37.30
2017-08-14T14:30:07.357Z,36.10
2017-08-14T14:32:34.824Z,35.10
2017-08-14T14:35:02.298Z,34.20
2017-08-14T14:37:29.790Z,33.50
2017-08-14T14:39:57.274Z,32.80
2017-08-14T14:42:24.730Z,32.60
2017-08-14T14:44:52.224Z,32.90
2017-08-14T14:47:19.690Z,32.90
2017-08-14T14:49:47.159Z,32.70
2017-08-14T14:52:14.634Z,32.40
2017-08-14T14:54:42.086Z,33.80
2017-08-14T14:57:09.580Z,36.30
2017-08-14T14:59:37.036Z,39.10
2017-08-14T15:02:04.542Z,41.70
2017-08-14T15:04:32.003Z,43.40
2017-08-14T15:06:59.451Z,44.40
2017-08-14T15:09:26.938Z,45.60
2017-08-14T15:11:54.398Z,46.60
2017-08-14T15:14:21.852Z,47.20
2017-08-14T15:16:49.362Z,47.80
2017-08-14T15:19:16.809Z,48.20
2017-08-14T15:21:44.261Z,48.70
2017-08-14T15:24:11.750Z,49.00
2017-08-14T15:26:39.190Z,48.90
2017-08-14T15:29:06.649Z,48.90
2017-08-14T15:31:34.118Z,49.00
2017-08-14T15:34:01.562Z,49.20
2017-08-14T15:36:29.042Z,49.30
2017-08-14T15:38:56.490Z,49.20
2017-08-14T15:41:23.933Z,49.00
2017-08-14T15:43:51.441Z,49.20
2017-08-14T15:46:18.898Z,49.20
2017-08-14T15:48:46.354Z,49.50
2017-08-14T15:51:13.837Z,49.20
2017-08-14T15:53:42.062Z,45.60
2017-08-14T15:56:09.509Z,45.60
2017-08-14T15:58:36.994Z,44.40
2017-08-14T16:01:04.470Z,43.20
2017-08-14T16:03:31.933Z,41.70
2017-08-14T16:05:59.405Z,40.50
2017-08-14T16:08:26.874Z,39.80
2017-08-14T16:10:54.445Z,38.70
2017-08-14T16:13:21.941Z,37.80
2017-08-14T16:15:49.550Z,37.00
2017-08-14T16:18:17.126Z,36.60
2017-08-14T16:20:45.326Z,36.10
2017-08-14T16:23:12.785Z,35.70
2017-08-14T16:25:40.416Z,35.20
2017-08-14T16:28:08.361Z,35.10
2017-08-14T16:30:36.121Z,34.90
2017-08-14T16:33:03.759Z,34.70
2017-08-14T16:35:31.495Z,34.40
2017-08-14T16:37:59.544Z,34.10
2017-08-14T16:40:27.480Z,33.90
2017-08-14T16:42:55.520Z,33.50
2017-08-14T16:45:23.025Z,33.10
2017-08-14T16:47:51.507Z,32.70
2017-08-14T16:50:19.036Z,32.50
2017-08-14T16:52:46.481Z,32.40
2017-08-14T16:55:13.974Z,32.40
2017-08-14T16:57:41.422Z,32.30
2017-08-14T17:00:08.879Z,32.40
2017-08-14T17:02:36.346Z,32.40
2017-08-14T17:05:03.789Z,32.20
2017-08-14T17:07:31.297Z,31.90
2017-08-14T17:09:59.509Z,31.50
2017-08-14T17:12:26.981Z,31.50
2017-08-14T17:14:54.457Z,31.40
2017-08-14T17:17:21.920Z,31.30
2017-08-14T17:19:49.385Z,31.20
2017-08-14T17:22:16.833Z,31.10
2017-08-14T17:24:44.301Z,30.90
2017-08-14T17:27:12.513Z,30.50
2017-08-14T17:29:40.007Z,30.50
2017-08-14T17:32:07.498Z,30.40
2017-08-14T17:34:34.954Z,30.70
2017-08-14T17:37:03.218Z,32.10
2017-08-14T17:39:30.850Z,32.10
2017-08-14T17:41:58.346Z,32.50
2017-08-14T17:44:25.849Z,32.40
2017-08-14T17:46:53.395Z,32.20
2017-08-14T17:49:20.858Z,31.70
2017-08-14T17:51:48.382Z,31.30
2017-08-14T17:54:15.970Z,31.00
2017-08-14T17:56:43.453Z,30.60
2017-08-14T17:59:10.944Z,30.20
2017-08-14T18:01:38.507Z,29.90
2017-08-14T18:04:06.015Z,29.70
2017-08-14T18:06:33.510Z,29.50
2017-08-14T18:09:01.052Z,29.30
2017-08-14T18:11:28.547Z,29.20
2017-08-14T18:13:56.043Z,29.00
2017-08-14T18:16:23.502Z,28.80
2017-08-14T18:18:50.954Z,28.60
2017-08-14T18:21:18.462Z,28.40
2017-08-14T18:23:45.959Z,28.20
2017-08-14T18:26:14.434Z,28.00
2017-08-14T18:28:41.952Z,27.80
2017-08-14T18:31:09.437Z,27.60
2017-08-14T18:33:37.771Z,27.30
2017-08-14T18:43:17.470Z,26.70
2017-08-14T18:45:44.919Z,26.70
2017-08-14T18:48:12.421Z,26.70
2017-08-14T18:50:39.926Z,26.60
2017-08-14T18:53:07.373Z,26.60
2017-08-14T18:55:34.831Z,26.60
2017-08-14T18:58:02.322Z,26.60
2017-08-14T19:00:29.779Z,26.60
2017-08-14T19:02:57.263Z,26.50
2017-08-14T19:05:24.756Z,26.50
2017-08-14T19:07:54.821Z,26.30
2017-08-14T19:10:21.285Z,26.30
2017-08-14T19:12:48.749Z,26.30
2017-08-14T19:15:16.197Z,26.20
2017-08-14T19:17:43.677Z,26.10
2017-08-14T19:20:11.122Z,26.10
2017-08-14T19:22:38.629Z,26.00
2017-08-14T19:25:06.111Z,25.90
2017-08-14T19:27:33.566Z,25.80
2017-08-14T19:30:01.058Z,25.70
2017-08-14T19:32:28.525Z,25.70
2017-08-14T19:34:55.988Z,25.60
2017-08-14T19:37:23.433Z,25.60
2017-08-14T19:39:50.937Z,25.50
2017-08-14T19:42:18.389Z,25.50
2017-08-14T19:44:45.841Z,25.40
2017-08-14T19:47:13.310Z,25.40
2017-08-14T19:49:40.758Z,25.40
2017-08-14T19:52:08.252Z,25.40
2017-08-14T19:54:35.701Z,25.30
2017-08-14T19:57:03.194Z,25.20
2017-08-14T19:59:30.643Z,25.10
2017-08-14T20:01:58.108Z,25.10
2017-08-14T20:04:25.602Z,25.10
2017-08-14T20:06:53.069Z,25.00
2017-08-14T20:09:20.584Z,24.90
2017-08-14T20:11:48.053Z,24.80
2017-08-14T20:14:15.514Z,24.70
2017-08-14T20:16:42.991Z,24.70
2017-08-14T20:19:10.460Z,24.70
2017-08-14T20:21:37.975Z,24.70
2017-08-14T20:24:05.436Z,24.70
2017-08-14T20:26:32.921Z,24.70
2017-08-14T20:29:01.142Z,24.60
2017-08-14T20:31:28.845Z,24.50
2017-08-14T20:33:56.301Z,24.50
2017-08-14T20:36:23.770Z,24.50
2017-08-14T20:38:52.026Z,24.40
2017-08-14T20:41:19.486Z,24.40
2017-08-14T20:43:46.937Z,24.40
2017-08-14T20:46:14.414Z,24.30
2017-08-14T20:48:42.653Z,24.30
2017-08-14T20:51:10.115Z,24.30
2017-08-14T20:53:37.585Z,24.20
2017-08-14T20:56:05.054Z,24.10
2017-08-14T20:58:32.538Z,24.10
2017-08-14T21:00:59.993Z,24.00
2017-08-14T21:03:28.214Z,23.90
2017-08-14T21:05:55.726Z,23.90
2017-08-14T21:08:23.939Z,23.80
2017-08-14T21:10:51.402Z,23.80
2017-08-14T21:13:18.865Z,23.70
2017-08-14T21:15:46.323Z,23.60
2017-08-14T21:18:13.789Z,23.60
2017-08-14T21:20:41.262Z,23.50
2017-08-14T21:23:08.742Z,23.50
2017-08-14T21:25:36.193Z,23.40
2017-08-14T21:28:03.681Z,23.40
2017-08-14T21:30:31.194Z,23.40
2017-08-14T21:32:58.687Z,23.40
2017-08-14T21:35:26.145Z,23.30
2017-08-14T21:37:53.602Z,23.20
2017-08-14T21:40:21.086Z,23.10
2017-08-14T21:42:48.572Z,23.00
2017-08-14T21:45:16.022Z,23.00
2017-08-14T21:47:43.506Z,22.90
2017-08-14T21:50:10.966Z,22.90
2017-08-14T21:52:38.421Z,22.80
2017-08-14T21:55:05.920Z,22.80
2017-08-14T21:57:34.133Z,22.70
2017-08-14T22:00:01.576Z,22.70
2017-08-14T22:02:29.058Z,22.70
2017-08-14T22:04:56.539Z,22.70
2017-08-14T22:07:24.035Z,22.60
2017-08-14T22:09:51.485Z,22.60
2017-08-14T22:12:19.739Z,22.50
2017-08-14T22:14:47.201Z,22.50
2017-08-14T22:17:15.426Z,22.50
2017-08-14T22:19:42.890Z,22.40
2017-08-14T22:22:10.366Z,22.40
2017-08-14T22:24:37.858Z,22.40
2017-08-14T22:27:06.074Z,22.30
2017-08-14T22:29:33.544Z,22.20
2017-08-14T22:32:01.006Z,22.30
2017-08-14T22:34:28.459Z,22.20
2017-08-14T22:36:55.929Z,22.20
2017-08-14T22:39:23.381Z,22.10
2017-08-14T22:41:50.849Z,22.10
2017-08-14T22:44:18.306Z,22.10
2017-08-14T22:46:45.776Z,22.10
2017-08-14T22:49:13.233Z,22.00
2017-08-14T22:51:40.710Z,22.00
2017-08-14T22:54:08.199Z,22.00
2017-08-14T22:56:35.656Z,22.00
2017-08-14T22:59:03.163Z,22.00
2017-08-14T23:01:30.655Z,21.90
2017-08-14T23:03:58.114Z,21.90
2017-08-14T23:06:25.561Z,21.90
2017-08-14T23:08:53.089Z,21.90
2017-08-14T23:11:20.550Z,21.90
2017-08-14T23:13:48.015Z,21.90
2017-08-14T23:16:15.499Z,21.90
2017-08-14T23:18:43.764Z,21.80
2017-08-14T23:21:11.234Z,21.80
2017-08-14T23:23:39.462Z,21.80
2017-08-14T23:26:06.949Z,21.80
2017-08-14T23:28:34.511Z,21.70
2017-08-14T23:31:01.990Z,21.70
2017-08-14T23:33:29.559Z,21.70
2017-08-14T23:35:57.946Z,21.60
2017-08-14T23:38:25.398Z,21.70
2017-08-14T23:40:52.879Z,21.70
2017-08-14T23:43:20.325Z,21.60
2017-08-14T23:45:47.816Z,21.60
2017-08-14T23:48:15.274Z,21.60
2017-08-14T23:50:42.729Z,21.60
2017-08-14T23:53:10.205Z,21.60
2017-08-14T23:55:37.689Z,21.60
2017-08-14T23:58:05.911Z,21.60
